createdAt,value
2019-04-07T00:02:20.902Z,46.30
2019-04-07T00:07:24.373Z,40.75
2019-04-07T00:12:29.273Z,45.17
2019-04-07T00:17:32.719Z,45.73
2019-04-07T00:22:36.760Z,46.58
2019-04-07T00:27:53.340Z,45.38
2019-04-07T00:32:56.788Z,44.63
2019-04-07T00:38:00.605Z,49.67
2019-04-07T00:43:04.505Z,48.85
2019-04-07T00:48:09.053Z,45.15
2019-04-07T00:53:12.579Z,54.03
2019-04-07T00:58:16.420Z,47.48
2019-04-07T01:03:20.045Z,51.95
2019-04-07T01:08:23.710Z,55.40
2019-04-07T01:13:27.329Z,46.20
2019-04-07T01:18:32.891Z,56.98
2019-04-07T01:23:36.415Z,73.75
2019-04-07T01:28:40.704Z,55.80
2019-04-07T01:33:46.873Z,51.68
2019-04-07T01:38:51.164Z,51.55
2019-04-07T01:44:01.073Z,54.38
2019-04-07T01:49:27.146Z,53.90
2019-04-07T01:55:02.789Z,65.32
2019-04-07T02:00:26.415Z,54.42
2019-04-07T02:05:58.607Z,54.83
2019-04-07T02:11:06.171Z,55.70
2019-04-07T02:16:27.848Z,56.73
2019-04-07T02:21:54.607Z,58.78
2019-04-07T02:27:18.028Z,62.53
2019-04-07T02:32:42.941Z,65.50
2019-04-07T02:37:54.597Z,60.88
2019-04-07T02:43:10.754Z,68.72
2019-04-07T02:48:35.236Z,64.97
2019-04-07T02:53:48.804Z,66.92
2019-04-07T02:58:58.234Z,62.73
2019-04-07T03:04:11.700Z,63.52
2019-04-07T03:09:34.975Z,70.10
2019-04-07T03:14:55.885Z,72.32
2019-04-07T03:20:23.089Z,68.85
2019-04-07T03:25:46.525Z,63.17
2019-04-07T03:31:14.743Z,68.15
2019-04-07T03:36:28.521Z,61.53
2019-04-07T03:42:04.615Z,59.53
2019-04-07T03:47:18.416Z,63.30
2019-04-07T03:52:40.508Z,69.85
2019-04-07T03:57:53.420Z,72.05
2019-04-07T04:03:05.215Z,73.12
2019-04-07T04:08:22.291Z,66.35
2019-04-07T04:13:35.738Z,69.15
2019-04-07T04:18:40.551Z,74.47
2019-04-07T04:23:45.742Z,75.72
2019-04-07T04:28:50.734Z,67.17
2019-04-07T04:33:55.655Z,66.53
2019-04-07T04:39:00.491Z,67.50
2019-04-07T04:44:04.090Z,68.97
2019-04-07T04:49:07.795Z,63.60
2019-04-07T04:54:11.135Z,65.17
2019-04-07T04:59:14.882Z,64.03
2019-04-07T05:04:19.182Z,66.22
2019-04-07T05:09:24.444Z,65.60
2019-04-07T05:14:28.464Z,71.17
2019-04-07T05:19:32.324Z,62.73
2019-04-07T05:24:36.656Z,65.47
2019-04-07T05:29:40.262Z,68.83
2019-04-07T05:34:44.437Z,68.25
2019-04-07T05:39:48.486Z,65.37
2019-04-07T05:44:52.910Z,68.78
2019-04-07T05:49:59.534Z,71.00
2019-04-07T05:55:03.042Z,73.33
2019-04-07T06:00:11.132Z,71.90
2019-04-07T06:05:16.219Z,68.52
2019-04-07T06:10:22.339Z,75.03
2019-04-07T06:15:24.823Z,65.10
2019-04-07T06:20:29.027Z,57.83
2019-04-07T06:25:36.940Z,52.95
2019-04-07T06:30:37.951Z,50.00
2019-04-07T06:35:45.075Z,49.15
2019-04-07T06:40:47.988Z,30.43
2019-04-07T06:46:00.396Z,31.20
2019-04-07T06:51:10.902Z,27.80
2019-04-07T06:56:43.594Z,29.50
2019-04-07T07:01:58.967Z,35.83
2019-04-07T07:07:16.734Z,24.77
2019-04-07T07:12:46.072Z,24.90
2019-04-07T07:18:02.532Z,23.32
2019-04-07T07:23:13.336Z,23.30
2019-04-07T07:28:16.163Z,30.97
2019-04-07T07:33:20.310Z,35.80
2019-04-07T07:38:24.565Z,28.62
2019-04-07T07:43:30.199Z,33.90
2019-04-07T07:48:33.986Z,34.55
2019-04-07T07:53:38.258Z,32.25
2019-04-07T07:58:41.672Z,31.25
2019-04-07T08:03:45.967Z,29.77
2019-04-07T08:08:51.480Z,31.62
2019-04-07T08:13:55.459Z,27.35
2019-04-07T08:19:00.491Z,28.23
2019-04-07T08:24:05.459Z,33.53
2019-04-07T08:29:12.559Z,30.20
2019-04-07T08:34:15.019Z,29.27
2019-04-07T08:39:24.415Z,27.82
2019-04-07T08:44:26.946Z,27.58
2019-04-07T08:49:32.343Z,31.02
2019-04-07T08:54:35.614Z,27.50
2019-04-07T08:59:42.468Z,31.42
2019-04-07T09:04:49.752Z,31.50
2019-04-07T09:09:50.123Z,35.13
2019-04-07T09:14:53.550Z,33.30
2019-04-07T09:20:17.251Z,32.23
2019-04-07T09:25:42.002Z,32.75
2019-04-07T09:30:57.439Z,27.62
2019-04-07T09:36:21.230Z,30.30
2019-04-07T09:41:47.374Z,28.32
2019-04-07T09:47:02.485Z,32.10
2019-04-07T09:52:23.569Z,24.27
2019-04-07T09:57:47.319Z,26.15
2019-04-07T10:03:14.928Z,27.00
2019-04-07T10:08:26.018Z,29.67
2019-04-07T10:13:52.106Z,26.65
2019-04-07T10:19:15.392Z,28.23
2019-04-07T10:24:41.928Z,29.07
2019-04-07T10:30:17.167Z,30.75
2019-04-07T10:35:29.564Z,38.30
2019-04-07T10:40:51.327Z,31.85
2019-04-07T10:46:12.416Z,33.75
2019-04-07T10:51:29.672Z,31.80
2019-04-07T10:56:43.867Z,28.07
2019-04-07T11:02:16.894Z,28.00
2019-04-07T11:07:31.624Z,29.85
2019-04-07T11:13:00.721Z,33.40
2019-04-07T11:18:26.632Z,29.50
2019-04-07T11:23:41.431Z,29.23
2019-04-07T11:29:10.469Z,26.42
2019-04-07T11:34:29.346Z,28.50
2019-04-07T11:39:46.817Z,27.32
2019-04-07T11:45:22.704Z,25.85
2019-04-07T11:50:41.671Z,30.30
2019-04-07T11:56:11.097Z,26.62
2019-04-07T12:01:38.175Z,23.98
2019-04-07T12:06:58.906Z,31.73
2019-04-07T12:12:09.679Z,29.55
2019-04-07T12:17:23.440Z,35.65
2019-04-07T12:22:47.718Z,32.53
2019-04-07T12:28:03.472Z,30.77
2019-04-07T12:38:58.765Z,38.60
2019-04-07T12:44:23.380Z,35.90
2019-04-07T12:49:51.870Z,41.45
2019-04-07T12:55:17.500Z,34.90
2019-04-07T13:00:26.298Z,35.98
2019-04-07T13:05:51.314Z,34.75
2019-04-07T13:11:04.844Z,32.85
2019-04-07T13:16:17.757Z,32.03
2019-04-07T13:21:40.661Z,34.75
2019-04-07T13:27:09.215Z,35.88
2019-04-07T13:32:40.953Z,34.33
2019-04-07T13:37:56.770Z,33.10
2019-04-07T13:43:25.511Z,36.00
2019-04-07T13:48:41.592Z,38.40
2019-04-07T13:54:17.882Z,35.80
2019-04-07T13:59:47.736Z,35.48
2019-04-07T14:05:15.202Z,33.30
2019-04-07T14:10:38.305Z,34.10
2019-04-07T14:16:01.547Z,37.58
2019-04-07T14:21:14.810Z,39.38
2019-04-07T14:26:32.379Z,35.43
2019-04-07T14:31:59.306Z,36.60
2019-04-07T14:37:21.749Z,37.33
2019-04-07T14:42:31.732Z,34.78
2019-04-07T14:47:52.328Z,38.90
2019-04-07T14:53:21.102Z,35.08
2019-04-07T14:58:51.283Z,32.42
2019-04-07T15:03:55.731Z,27.25
2019-04-07T15:09:12.223Z,29.55
2019-04-07T15:14:15.699Z,27.50
2019-04-07T15:19:20.163Z,24.07
2019-04-07T15:24:23.974Z,21.33
2019-04-07T15:29:29.946Z,22.80
2019-04-07T15:34:34.257Z,23.18
2019-04-07T15:39:38.364Z,22.80
2019-04-07T15:44:42.776Z,19.90
2019-04-07T15:49:47.167Z,20.32
2019-04-07T15:54:54.321Z,26.33
2019-04-07T16:00:00.074Z,18.35
2019-04-07T16:05:03.694Z,18.85
2019-04-07T16:10:08.081Z,25.55
2019-04-07T16:15:15.816Z,22.70
2019-04-07T16:20:25.075Z,21.75
2019-04-07T16:25:28.219Z,24.92
2019-04-07T16:30:32.915Z,27.85
2019-04-07T16:35:36.547Z,27.35
2019-04-07T16:40:41.340Z,27.02
2019-04-07T16:45:46.277Z,29.63
2019-04-07T16:50:53.271Z,41.98
2019-04-07T16:55:56.108Z,41.77
2019-04-07T17:01:00.059Z,49.23
2019-04-07T17:06:05.236Z,37.58
2019-04-07T17:11:09.583Z,37.25
2019-04-07T17:16:14.729Z,41.37
2019-04-07T17:21:20.493Z,43.45
2019-04-07T17:26:24.714Z,41.45
2019-04-07T17:31:31.849Z,42.58
2019-04-07T17:36:39.329Z,43.15
2019-04-07T17:41:49.182Z,34.65
2019-04-07T17:47:07.210Z,34.33
2019-04-07T17:52:33.730Z,38.80
2019-04-07T17:57:46.171Z,33.58
2019-04-07T18:03:05.183Z,36.70
2019-04-07T18:08:15.671Z,31.07
2019-04-07T18:13:49.874Z,30.05
2019-04-07T18:19:09.816Z,29.60
2019-04-07T18:24:48.748Z,30.77
2019-04-07T18:30:14.501Z,27.48
2019-04-07T18:35:39.096Z,32.45
2019-04-07T18:41:11.190Z,33.63
2019-04-07T18:46:25.205Z,34.60
2019-04-07T18:51:54.310Z,28.67
2019-04-07T18:57:23.864Z,31.95
2019-04-07T19:02:55.732Z,28.25
2019-04-07T19:08:20.251Z,30.55
2019-04-07T19:13:32.463Z,30.77
2019-04-07T19:18:46.326Z,31.17
2019-04-07T19:24:04.426Z,28.87
2019-04-07T19:29:16.361Z,30.75
2019-04-07T19:34:55.185Z,28.95
2019-04-07T19:40:18.792Z,33.13
2019-04-07T19:45:48.922Z,40.43
2019-04-07T19:51:04.654Z,45.30
2019-04-07T19:56:31.456Z,42.13
2019-04-07T20:01:53.510Z,38.53
2019-04-07T20:07:15.863Z,42.73
2019-04-07T20:12:55.009Z,54.58
2019-04-07T20:18:26.947Z,43.00
2019-04-07T20:23:41.871Z,43.28
2019-04-07T20:29:04.970Z,39.20
2019-04-07T20:34:36.574Z,38.15
2019-04-07T20:39:56.243Z,38.98
2019-04-07T20:45:17.509Z,38.23
2019-04-07T20:50:37.686Z,35.95
2019-04-07T20:56:03.867Z,37.10
2019-04-07T21:01:27.652Z,38.58
2019-04-07T21:06:49.634Z,34.50
2019-04-07T21:12:01.186Z,37.75
2019-04-07T21:17:31.306Z,32.45
2019-04-07T21:22:43.301Z,40.65
2019-04-07T21:27:52.644Z,34.30
2019-04-07T21:33:17.481Z,36.03
2019-04-07T21:38:37.758Z,43.60
2019-04-07T21:43:58.216Z,34.00
2019-04-07T21:49:21.301Z,33.40
2019-04-07T21:54:44.618Z,33.95
2019-04-07T22:00:06.166Z,37.33
2019-04-07T22:05:29.212Z,40.43
2019-04-07T22:10:34.002Z,42.13
2019-04-07T22:15:45.800Z,41.13
2019-04-07T22:20:43.255Z,39.08
2019-04-07T22:25:52.157Z,43.28
2019-04-07T22:30:57.474Z,42.62
2019-04-07T22:36:01.939Z,43.85
2019-04-07T22:41:07.358Z,40.35
2019-04-07T22:46:18.442Z,46.45
2019-04-07T22:51:16.802Z,43.15
2019-04-07T22:56:20.977Z,45.03
2019-04-07T23:01:25.095Z,41.23
2019-04-07T23:06:29.242Z,44.80
2019-04-07T23:11:33.628Z,46.83
2019-04-07T23:16:38.036Z,46.25
2019-04-07T23:21:42.019Z,49.42
2019-04-07T23:26:45.665Z,47.98
2019-04-07T23:31:49.412Z,47.35
2019-04-07T23:36:52.807Z,49.53
2019-04-07T23:41:57.505Z,52.80
2019-04-07T23:47:00.953Z,47.95
2019-04-07T23:52:05.093Z,54.65
2019-04-07T23:57:08.436Z,50.23
